createdAt,value
2022-08-28T00:01:59.134Z,19.86
2022-08-28T00:04:25.686Z,19.80
2022-08-28T00:06:52.241Z,19.76
2022-08-28T00:09:19.353Z,19.72
2022-08-28T00:11:47.178Z,19.67
2022-08-28T00:14:13.902Z,19.68
2022-08-28T00:16:40.674Z,19.68
2022-08-28T00:19:07.263Z,19.65
2022-08-28T00:21:33.905Z,19.66
2022-08-28T00:24:00.839Z,19.68
2022-08-28T00:26:46.273Z,19.65
2022-08-28T00:29:12.900Z,19.59
2022-08-28T00:31:39.745Z,19.58
2022-08-28T00:34:08.004Z,19.54
2022-08-28T00:36:36.048Z,19.48
2022-08-28T00:39:03.037Z,19.38
2022-08-28T00:41:31.300Z,19.34
2022-08-28T00:44:19.329Z,19.24
2022-08-28T00:46:48.472Z,19.22
2022-08-28T00:49:17.588Z,19.22
2022-08-28T00:52:03.154Z,19.19
2022-08-28T00:54:58.661Z,19.17
2022-08-28T00:57:37.276Z,19.14
2022-08-28T01:00:08.074Z,19.03
2022-08-28T01:02:34.691Z,19.05
2022-08-28T01:05:01.740Z,19.03
2022-08-28T01:07:28.597Z,18.99
2022-08-28T01:09:55.938Z,18.96
2022-08-28T01:12:29.643Z,18.90
2022-08-28T01:15:02.042Z,18.89
2022-08-28T01:17:32.982Z,18.85
2022-08-28T01:20:09.433Z,18.82
2022-08-28T01:22:43.236Z,18.79
2022-08-28T01:25:20.075Z,18.72
2022-08-28T01:27:46.913Z,18.70
2022-08-28T01:30:16.692Z,18.64
2022-08-28T01:32:47.635Z,18.63
2022-08-28T01:35:17.703Z,18.63
2022-08-28T01:37:45.745Z,18.65
2022-08-28T01:40:17.540Z,18.64
2022-08-28T01:42:45.131Z,18.65
2022-08-28T01:45:15.624Z,18.67
2022-08-28T01:47:44.250Z,18.65
2022-08-28T01:50:16.043Z,18.63
2022-08-28T01:52:42.817Z,18.65
2022-08-28T01:55:10.691Z,18.65
2022-08-28T01:57:48.205Z,18.61
2022-08-28T02:00:15.772Z,18.56
2022-08-28T02:02:42.361Z,18.50
2022-08-28T02:05:10.142Z,18.48
2022-08-28T02:07:37.349Z,18.45
2022-08-28T02:10:06.411Z,18.45
2022-08-28T02:12:32.937Z,18.40
2022-08-28T02:14:59.509Z,18.37
2022-08-28T02:17:26.077Z,18.36
2022-08-28T02:19:52.636Z,18.34
2022-08-28T02:22:19.164Z,18.28
2022-08-28T02:24:46.261Z,18.31
2022-08-28T02:27:12.791Z,18.28
2022-08-28T02:29:39.370Z,18.29
2022-08-28T02:32:06.148Z,18.24
2022-08-28T02:34:34.500Z,18.21
2022-08-28T02:37:01.026Z,18.16
2022-08-28T02:39:27.768Z,18.13
2022-08-28T02:41:54.356Z,18.01
2022-08-28T02:44:21.125Z,18.05
2022-08-28T02:46:47.661Z,18.05
2022-08-28T02:49:14.141Z,18.04
2022-08-28T02:51:40.668Z,18.00
2022-08-28T02:54:07.148Z,17.98
2022-08-28T02:56:34.326Z,17.93
2022-08-28T02:59:00.827Z,17.91
2022-08-28T03:01:27.483Z,17.90
2022-08-28T03:03:53.937Z,17.85
2022-08-28T03:06:20.890Z,17.82
2022-08-28T03:08:47.416Z,17.78
2022-08-28T03:11:13.905Z,17.76
2022-08-28T03:13:40.649Z,17.72
2022-08-28T03:16:07.375Z,17.66
2022-08-28T03:18:34.259Z,17.62
2022-08-28T03:21:01.109Z,17.58
2022-08-28T03:23:27.770Z,17.56
2022-08-28T03:25:55.487Z,17.54
2022-08-28T03:28:22.336Z,17.49
2022-08-28T03:30:49.696Z,17.46
2022-08-28T03:33:16.686Z,17.48
2022-08-28T03:35:43.446Z,17.47
2022-08-28T03:38:11.733Z,17.43
2022-08-28T03:40:43.025Z,17.40
2022-08-28T03:43:17.937Z,17.41
2022-08-28T03:46:15.381Z,17.42
2022-08-28T03:48:44.960Z,17.40
2022-08-28T03:51:19.539Z,17.42
2022-08-28T03:53:52.740Z,17.43
2022-08-28T03:56:24.567Z,17.42
2022-08-28T03:58:53.373Z,17.47
2022-08-28T04:01:20.692Z,17.46
2022-08-28T04:03:47.879Z,17.43
2022-08-28T04:06:15.933Z,17.44
2022-08-28T04:08:42.833Z,17.44
2022-08-28T04:11:10.093Z,17.44
2022-08-28T04:13:36.836Z,17.37
2022-08-28T04:16:10.765Z,17.38
2022-08-28T04:18:43.037Z,17.32
2022-08-28T04:21:16.359Z,17.30
2022-08-28T04:23:44.147Z,17.28
2022-08-28T04:26:13.597Z,17.24
2022-08-28T04:28:40.626Z,17.24
2022-08-28T04:31:08.227Z,17.22
2022-08-28T04:33:34.944Z,17.16
2022-08-28T04:36:07.908Z,17.19
2022-08-28T04:38:34.474Z,17.17
2022-08-28T04:41:12.795Z,17.18
2022-08-28T04:43:39.820Z,17.15
2022-08-28T04:46:08.898Z,17.14
2022-08-28T04:48:35.968Z,17.16
2022-08-28T04:51:05.568Z,17.17
2022-08-28T04:53:33.033Z,17.15
2022-08-28T04:56:00.628Z,17.17
2022-08-28T04:58:27.822Z,17.17
2022-08-28T05:00:55.022Z,17.20
2022-08-28T05:03:21.671Z,17.20
2022-08-28T05:05:51.895Z,17.24
2022-08-28T05:08:21.467Z,17.27
2022-08-28T05:10:48.257Z,17.26
2022-08-28T05:13:16.132Z,17.24
2022-08-28T05:15:46.887Z,17.27
2022-08-28T05:18:14.710Z,17.27
2022-08-28T05:20:44.885Z,17.28
2022-08-28T05:23:13.449Z,17.31
2022-08-28T05:25:42.758Z,17.32
2022-08-28T05:28:11.985Z,17.35
2022-08-28T05:30:40.770Z,17.39
2022-08-28T05:33:08.616Z,17.41
2022-08-28T05:35:42.367Z,17.42
2022-08-28T05:38:09.573Z,17.43
2022-08-28T05:40:43.340Z,17.48
2022-08-28T05:43:10.536Z,17.55
2022-08-28T05:45:37.210Z,17.61
2022-08-28T05:48:04.257Z,17.65
2022-08-28T05:50:31.307Z,17.70
2022-08-28T05:52:57.945Z,17.71
2022-08-28T05:55:24.567Z,17.75
2022-08-28T05:57:51.143Z,17.82
2022-08-28T06:00:18.380Z,17.88
2022-08-28T06:02:45.047Z,17.88
2022-08-28T06:05:13.003Z,17.92
2022-08-28T06:07:40.987Z,17.96
2022-08-28T06:10:07.985Z,18.00
2022-08-28T06:12:37.716Z,18.12
2022-08-28T06:15:05.931Z,18.21
2022-08-28T06:17:32.506Z,18.25
2022-08-28T06:19:58.980Z,18.25
2022-08-28T06:22:25.960Z,18.27
2022-08-28T06:24:52.507Z,18.38
2022-08-28T06:27:19.064Z,18.43
2022-08-28T06:29:45.836Z,18.46
2022-08-28T06:32:12.348Z,18.50
2022-08-28T06:34:39.300Z,18.56
2022-08-28T06:37:05.887Z,18.62
2022-08-28T06:39:32.403Z,18.70
2022-08-28T06:41:58.932Z,18.73
2022-08-28T06:44:25.495Z,18.80
2022-08-28T06:46:54.592Z,18.87
2022-08-28T06:49:21.428Z,18.92
2022-08-28T06:51:48.544Z,18.95
2022-08-28T06:54:22.730Z,19.01
2022-08-28T06:56:50.004Z,19.07
2022-08-28T06:59:16.491Z,19.12
2022-08-28T07:01:43.129Z,19.17
2022-08-28T07:04:11.866Z,19.28
2022-08-28T07:06:40.894Z,19.38
2022-08-28T07:09:11.181Z,19.45
2022-08-28T07:11:39.354Z,19.58
2022-08-28T07:14:06.786Z,19.63
2022-08-28T07:16:38.085Z,19.72
2022-08-28T07:19:10.482Z,19.77
2022-08-28T07:21:39.522Z,19.77
2022-08-28T07:24:07.512Z,19.79
2022-08-28T07:26:35.638Z,19.84
2022-08-28T07:29:10.898Z,19.82
2022-08-28T07:31:41.282Z,19.84
2022-08-28T07:34:09.733Z,19.82
2022-08-28T07:36:36.831Z,19.86
2022-08-28T07:39:05.138Z,19.91
2022-08-28T07:41:33.795Z,19.90
2022-08-28T07:44:18.856Z,19.96
2022-08-28T07:46:45.863Z,19.87
2022-08-28T07:49:16.886Z,19.95
2022-08-28T07:51:43.346Z,19.98
2022-08-28T07:54:17.923Z,20.03
2022-08-28T07:56:45.511Z,20.05
2022-08-28T07:59:16.619Z,20.09
2022-08-28T08:01:46.532Z,20.07
2022-08-28T08:04:15.963Z,20.15
2022-08-28T08:06:43.411Z,20.21
2022-08-28T08:09:12.916Z,20.29
2022-08-28T08:11:39.443Z,20.34
2022-08-28T08:14:06.174Z,20.52
2022-08-28T08:16:35.548Z,20.71
2022-08-28T08:19:03.344Z,20.89
2022-08-28T08:21:30.686Z,21.00
2022-08-28T08:23:57.994Z,21.10
2022-08-28T08:26:26.110Z,21.12
2022-08-28T08:28:52.650Z,21.26
2022-08-28T08:31:22.173Z,21.23
2022-08-28T08:33:55.192Z,21.23
2022-08-28T08:36:24.293Z,21.21
2022-08-28T08:39:00.001Z,21.29
2022-08-28T08:41:30.294Z,21.38
2022-08-28T08:43:59.341Z,21.44
2022-08-28T08:46:48.717Z,21.45
2022-08-28T08:49:18.907Z,21.55
2022-08-28T08:52:13.949Z,21.61
2022-08-28T08:54:43.111Z,21.84
2022-08-28T08:57:12.895Z,22.01
2022-08-28T08:59:39.984Z,22.10
2022-08-28T09:02:14.141Z,22.01
2022-08-28T09:04:52.912Z,21.93
2022-08-28T09:07:37.884Z,22.07
2022-08-28T09:10:11.165Z,22.21
2022-08-28T09:13:02.290Z,22.29
2022-08-28T09:15:40.220Z,22.29
2022-08-28T09:18:19.303Z,22.38
2022-08-28T09:20:50.591Z,22.21
2022-08-28T09:23:17.348Z,22.26
2022-08-28T09:25:52.817Z,22.25
2022-08-28T09:28:50.607Z,22.29
2022-08-28T09:31:31.875Z,22.38
2022-08-28T09:34:24.371Z,22.35
2022-08-28T09:36:52.976Z,22.35
2022-08-28T09:39:27.013Z,22.57
2022-08-28T09:42:37.037Z,22.82
2022-08-28T09:45:14.593Z,22.85
2022-08-28T09:47:46.684Z,23.04
2022-08-28T09:50:31.983Z,23.27
2022-08-28T09:53:20.485Z,23.43
2022-08-28T09:56:19.599Z,23.60
2022-08-28T09:58:56.281Z,23.64
2022-08-28T10:01:44.583Z,23.74
2022-08-28T10:04:20.700Z,23.75
2022-08-28T10:07:05.378Z,23.84
2022-08-28T10:10:12.648Z,23.88
2022-08-28T10:13:23.844Z,24.07
2022-08-28T10:15:59.533Z,24.18
2022-08-28T10:19:02.105Z,24.36
2022-08-28T10:21:53.436Z,24.46
2022-08-28T10:24:52.370Z,24.48
2022-08-28T10:27:34.161Z,24.66
2022-08-28T10:30:12.499Z,24.75
2022-08-28T10:33:07.207Z,24.87
2022-08-28T10:35:53.096Z,24.92
2022-08-28T10:38:30.713Z,25.21
2022-08-28T10:41:08.377Z,25.17
2022-08-28T10:43:49.615Z,25.37
2022-08-28T10:46:27.208Z,25.53
2022-08-28T10:49:04.780Z,25.58
2022-08-28T10:51:52.174Z,25.48
2022-08-28T10:54:22.721Z,25.50
2022-08-28T10:57:18.589Z,25.49
2022-08-28T10:59:47.813Z,25.72
2022-08-28T11:02:16.606Z,25.78
2022-08-28T11:04:46.019Z,25.91
2022-08-28T11:07:21.234Z,25.96
2022-08-28T11:09:48.802Z,26.05
2022-08-28T11:12:19.679Z,25.86
2022-08-28T11:14:49.443Z,25.68
2022-08-28T11:17:22.092Z,25.77
2022-08-28T11:20:20.521Z,26.03
2022-08-28T11:23:07.238Z,26.00
2022-08-28T11:25:51.955Z,26.60
2022-08-28T11:28:22.368Z,26.94
2022-08-28T11:31:10.297Z,27.00
2022-08-28T11:33:52.987Z,26.80
2022-08-28T11:36:19.554Z,26.67
2022-08-28T11:38:46.459Z,26.62
2022-08-28T11:41:21.759Z,26.73
2022-08-28T11:44:09.047Z,27.03
2022-08-28T11:46:36.753Z,27.31
2022-08-28T11:49:05.956Z,27.49
2022-08-28T11:52:00.470Z,27.46
2022-08-28T11:54:54.273Z,27.30
2022-08-28T11:57:54.195Z,27.55
2022-08-28T12:00:27.075Z,27.69
2022-08-28T12:03:08.468Z,27.68
2022-08-28T12:05:48.348Z,27.68
2022-08-28T12:08:54.903Z,27.87
2022-08-28T12:11:39.604Z,28.28
2022-08-28T12:14:40.955Z,28.57
2022-08-28T12:17:17.990Z,28.88
2022-08-28T12:19:55.895Z,28.81
2022-08-28T12:22:43.849Z,28.96
2022-08-28T12:25:22.560Z,29.34
2022-08-28T12:27:49.660Z,29.73
2022-08-28T12:30:47.100Z,30.34
2022-08-28T12:33:24.939Z,30.96
2022-08-28T12:35:51.528Z,31.16
2022-08-28T12:38:21.610Z,31.33
2022-08-28T12:40:50.998Z,31.35
2022-08-28T12:43:28.350Z,30.84
2022-08-28T12:45:58.926Z,30.95
2022-08-28T12:48:31.618Z,31.41
2022-08-28T12:50:58.462Z,32.03
2022-08-28T12:53:26.720Z,32.34
2022-08-28T12:55:55.453Z,32.53
2022-08-28T12:58:48.455Z,32.65
2022-08-28T13:01:21.174Z,32.82
2022-08-28T13:03:54.696Z,32.77
2022-08-28T13:06:29.048Z,33.14
2022-08-28T13:09:06.783Z,33.16
2022-08-28T13:11:44.734Z,33.48
2022-08-28T13:14:11.557Z,33.64
2022-08-28T13:16:45.379Z,33.93
2022-08-28T13:19:30.903Z,33.93
2022-08-28T13:22:01.788Z,33.97
2022-08-28T13:24:37.260Z,34.25
2022-08-28T13:27:09.370Z,34.36
2022-08-28T13:29:36.880Z,34.30
2022-08-28T13:32:07.170Z,34.35
2022-08-28T13:34:38.887Z,34.45
2022-08-28T13:37:40.946Z,34.38
2022-08-28T13:40:19.719Z,34.21
2022-08-28T13:43:02.530Z,34.15
2022-08-28T13:45:31.562Z,34.07
2022-08-28T13:48:11.468Z,34.07
2022-08-28T13:50:42.068Z,33.91
2022-08-28T13:53:12.247Z,33.70
2022-08-28T13:55:39.223Z,33.67
2022-08-28T13:58:05.783Z,33.63
2022-08-28T14:00:36.167Z,33.67
2022-08-28T14:03:21.327Z,33.80
2022-08-28T14:05:48.109Z,33.70
2022-08-28T14:08:14.987Z,33.82
2022-08-28T14:10:42.336Z,33.88
2022-08-28T14:13:08.951Z,33.63
2022-08-28T14:15:35.718Z,33.56
2022-08-28T14:18:02.255Z,33.64
2022-08-28T14:20:29.258Z,33.46
2022-08-28T14:22:55.816Z,33.38
2022-08-28T14:25:22.391Z,33.13
2022-08-28T14:27:49.400Z,33.24
2022-08-28T14:30:16.434Z,33.42
2022-08-28T14:32:43.119Z,33.57
2022-08-28T14:35:09.742Z,33.20
2022-08-28T14:37:36.249Z,32.99
2022-08-28T14:40:03.812Z,32.96
2022-08-28T14:42:30.415Z,32.89
2022-08-28T14:44:56.998Z,32.84
2022-08-28T14:47:24.891Z,32.99
2022-08-28T14:49:51.555Z,32.84
2022-08-28T14:52:19.438Z,32.95
2022-08-28T14:54:46.242Z,32.87
2022-08-28T14:57:13.569Z,32.92
2022-08-28T14:59:40.192Z,32.83
2022-08-28T15:02:07.787Z,32.84
2022-08-28T15:04:35.354Z,32.82
2022-08-28T15:07:06.382Z,32.47
2022-08-28T15:09:36.580Z,32.32
2022-08-28T15:12:03.376Z,32.24
2022-08-28T15:14:30.352Z,32.12
2022-08-28T15:16:57.048Z,32.04
2022-08-28T15:19:24.114Z,31.69
2022-08-28T15:21:53.686Z,31.56
2022-08-28T15:24:27.964Z,31.49
2022-08-28T15:26:54.965Z,31.20
2022-08-28T15:29:21.615Z,31.01
2022-08-28T15:31:50.065Z,30.74
2022-08-28T15:34:20.932Z,30.40
2022-08-28T15:36:49.181Z,30.23
2022-08-28T15:39:41.368Z,29.99
2022-08-28T15:42:09.016Z,29.60
2022-08-28T15:44:35.569Z,29.35
2022-08-28T15:47:03.135Z,29.14
2022-08-28T15:49:32.258Z,28.96
2022-08-28T15:52:03.129Z,28.84
2022-08-28T15:54:31.806Z,28.77
2022-08-28T15:56:58.424Z,28.62
2022-08-28T15:59:37.968Z,28.48
2022-08-28T16:02:14.356Z,28.41
2022-08-28T16:04:41.001Z,28.36
2022-08-28T16:07:07.567Z,28.30
2022-08-28T16:09:34.087Z,28.09
2022-08-28T16:12:00.622Z,28.07
2022-08-28T16:14:27.146Z,28.04
2022-08-28T16:16:53.758Z,28.01
2022-08-28T16:19:20.496Z,27.89
2022-08-28T16:21:47.000Z,27.73
2022-08-28T16:24:13.525Z,27.53
2022-08-28T16:26:40.197Z,27.40
2022-08-28T16:29:06.774Z,27.14
2022-08-28T16:31:34.299Z,27.05
2022-08-28T16:34:02.327Z,26.94
2022-08-28T16:36:29.991Z,26.95
2022-08-28T16:39:00.364Z,26.93
2022-08-28T16:41:31.969Z,26.87
2022-08-28T16:43:59.185Z,26.80
2022-08-28T16:46:26.837Z,26.73
2022-08-28T16:48:54.274Z,26.62
2022-08-28T16:51:21.495Z,26.66
2022-08-28T16:53:48.325Z,26.58
2022-08-28T16:56:17.100Z,26.44
2022-08-28T17:27:42.175Z,24.97
2022-08-28T17:30:09.690Z,24.94
2022-08-28T17:32:36.948Z,24.93
2022-08-28T17:35:05.394Z,24.84
2022-08-28T17:37:32.393Z,24.78
2022-08-28T17:39:59.157Z,24.69
2022-08-28T17:42:25.949Z,24.57
2022-08-28T17:44:52.512Z,24.52
2022-08-28T17:47:19.417Z,24.47
2022-08-28T17:49:54.841Z,24.41
2022-08-28T17:52:21.357Z,24.30
2022-08-28T17:54:47.826Z,24.20
2022-08-28T17:57:16.515Z,24.16
2022-08-28T17:59:43.060Z,24.08
2022-08-28T18:02:09.828Z,24.08
2022-08-28T18:04:36.794Z,24.01
2022-08-28T18:07:03.371Z,24.00
2022-08-28T18:09:29.945Z,23.95
2022-08-28T18:11:56.474Z,23.88
2022-08-28T18:14:23.074Z,23.90
2022-08-28T18:16:49.643Z,23.84
2022-08-28T18:19:16.644Z,23.76
2022-08-28T18:21:43.829Z,23.64
2022-08-28T18:24:12.901Z,23.63
2022-08-28T18:26:40.946Z,23.56
2022-08-28T18:29:07.490Z,23.48
2022-08-28T18:31:34.047Z,23.43
2022-08-28T18:34:00.719Z,23.36
2022-08-28T18:36:27.725Z,23.27
2022-08-28T18:38:54.268Z,23.17
2022-08-28T18:41:21.212Z,23.12
2022-08-28T18:43:55.954Z,23.08
2022-08-28T18:46:24.592Z,22.99
2022-08-28T18:48:53.140Z,22.88
2022-08-28T18:51:21.694Z,22.81
2022-08-28T18:53:48.755Z,22.77
2022-08-28T18:56:16.118Z,22.68
2022-08-28T18:58:43.253Z,22.63
2022-08-28T19:01:10.247Z,22.58
2022-08-28T19:03:36.911Z,22.52
2022-08-28T19:06:04.236Z,22.49
2022-08-28T19:08:32.846Z,22.40
2022-08-28T19:10:59.728Z,22.33
2022-08-28T19:13:27.813Z,22.28
2022-08-28T19:15:54.433Z,22.19
2022-08-28T19:18:21.025Z,22.16
2022-08-28T19:20:48.020Z,22.12
2022-08-28T19:23:17.669Z,22.03
2022-08-28T19:25:45.606Z,21.97
2022-08-28T19:28:12.226Z,21.91
2022-08-28T19:30:38.800Z,21.86
2022-08-28T19:33:05.894Z,21.77
2022-08-28T19:35:33.708Z,21.69
2022-08-28T19:38:00.395Z,21.62
2022-08-28T19:40:27.445Z,21.56
2022-08-28T19:42:54.129Z,21.48
2022-08-28T19:45:20.961Z,21.44
2022-08-28T19:47:47.563Z,21.37
2022-08-28T19:50:15.590Z,21.27
2022-08-28T19:52:43.405Z,21.22
2022-08-28T19:55:19.273Z,21.12
2022-08-28T19:57:46.872Z,21.09
2022-08-28T20:00:15.070Z,21.03
2022-08-28T20:02:41.576Z,20.99
2022-08-28T20:05:08.696Z,20.94
2022-08-28T20:07:35.228Z,20.92
2022-08-28T20:10:02.072Z,20.90
2022-08-28T20:12:28.594Z,20.84
2022-08-28T20:14:55.154Z,20.74
2022-08-28T20:17:22.014Z,20.73
2022-08-28T20:19:48.548Z,20.72
2022-08-28T20:22:15.242Z,20.69
2022-08-28T20:24:41.963Z,20.63
2022-08-28T20:27:08.530Z,20.59
2022-08-28T20:29:35.108Z,20.51
2022-08-28T20:32:02.109Z,20.48
2022-08-28T20:34:29.123Z,20.39
2022-08-28T20:36:55.741Z,20.32
2022-08-28T20:39:22.590Z,20.22
2022-08-28T20:41:49.705Z,20.20
2022-08-28T20:44:18.756Z,20.15
2022-08-28T20:46:51.256Z,20.11
2022-08-28T20:49:21.655Z,20.09
2022-08-28T20:51:56.531Z,20.06
2022-08-28T20:54:27.934Z,20.03
2022-08-28T20:56:57.218Z,20.02
2022-08-28T20:59:24.321Z,19.96
2022-08-28T21:01:56.133Z,19.93
2022-08-28T21:04:23.312Z,19.86
2022-08-28T21:06:50.488Z,19.78
2022-08-28T21:09:17.946Z,19.75
2022-08-28T21:11:44.860Z,19.69
2022-08-28T21:14:11.594Z,19.66
2022-08-28T21:16:39.310Z,19.68
2022-08-28T21:19:15.807Z,19.65
2022-08-28T21:21:43.678Z,19.58
2022-08-28T21:24:12.513Z,19.47
2022-08-28T21:26:48.966Z,19.45
2022-08-28T21:29:16.826Z,19.43
2022-08-28T21:31:44.414Z,19.36
2022-08-28T21:34:11.777Z,19.38
2022-08-28T21:36:41.545Z,19.35
2022-08-28T21:39:08.050Z,19.31
2022-08-28T21:41:34.695Z,19.23
2022-08-28T21:44:01.339Z,19.24
2022-08-28T21:46:28.154Z,19.14
2022-08-28T21:48:56.456Z,19.11
2022-08-28T21:51:24.461Z,19.10
2022-08-28T21:53:52.141Z,19.04
2022-08-28T21:56:22.830Z,19.00
2022-08-28T21:58:50.548Z,18.95
2022-08-28T22:01:18.272Z,18.90
2022-08-28T22:03:44.983Z,18.86
2022-08-28T22:06:14.394Z,18.86
2022-08-28T22:08:41.984Z,18.84
2022-08-28T22:11:09.617Z,18.79
2022-08-28T22:13:37.092Z,18.74
2022-08-28T22:16:05.402Z,18.66
2022-08-28T22:18:34.187Z,18.63
2022-08-28T22:21:20.272Z,18.57
2022-08-28T22:23:47.108Z,18.53
2022-08-28T22:26:20.147Z,18.48
2022-08-28T22:28:46.957Z,18.45
2022-08-28T22:31:13.857Z,18.39
2022-08-28T22:33:41.325Z,18.34
2022-08-28T22:36:09.848Z,18.27
2022-08-28T22:38:37.979Z,18.17
2022-08-28T22:41:04.996Z,18.11
2022-08-28T22:43:31.595Z,18.07
2022-08-28T22:45:58.169Z,18.05
2022-08-28T22:48:24.729Z,18.00
2022-08-28T22:50:51.224Z,17.90
2022-08-28T22:53:17.812Z,17.82
2022-08-28T22:55:44.880Z,17.77
2022-08-28T22:58:12.856Z,17.70
2022-08-28T23:00:41.694Z,17.68
2022-08-28T23:03:08.526Z,17.63
2022-08-28T23:05:35.227Z,17.55
2022-08-28T23:08:01.796Z,17.54
2022-08-28T23:10:48.294Z,17.52
2022-08-28T23:13:15.694Z,17.48
2022-08-28T23:15:43.445Z,17.46
2022-08-28T23:18:10.986Z,17.40
2022-08-28T23:20:37.578Z,17.35
2022-08-28T23:23:04.125Z,17.32
2022-08-28T23:25:30.712Z,17.27
2022-08-28T23:27:57.291Z,17.18
2022-08-28T23:30:24.385Z,17.10
2022-08-28T23:32:52.957Z,17.04
2022-08-28T23:35:20.559Z,17.05
2022-08-28T23:37:51.944Z,17.00
2022-08-28T23:40:21.959Z,16.94
2022-08-28T23:42:48.914Z,16.95
2022-08-28T23:45:17.417Z,16.92
2022-08-28T23:47:44.953Z,16.89
2022-08-28T23:50:15.769Z,16.82
2022-08-28T23:52:43.124Z,16.79
2022-08-28T23:55:12.273Z,16.75
2022-08-28T23:57:38.836Z,16.72
